Time;durP1;ratioP1;P1;durP2;ratioP2;P2;SDS_P1;SDS_P2;PMS_P1;PMS_P2;Temp;Humidity;BMP_temperature;BMP_pressure;BME280_temperature;BME280_humidity;BME280_pressure;Samples;Min_cycle;Max_cycle;Signal;HPM_P1;HPM_P2
2023/10/10 00:01:21;;;;;;;14.30;4.78;;;;;;;8.14;48.37;100368.58;1638923;87;22668;-80
2023/10/10 00:04:28;;;;;;;10.58;4.87;;;;;;;8.12;48.37;100370.59;1639262;87;21348;-80
2023/10/10 00:07:34;;;;;;;11.75;5.60;;;;;;;8.09;48.42;100370.42;1639385;87;21316;-80
2023/10/10 00:10:40;;;;;;;11.97;5.83;;;;;;;8.11;48.38;100372.46;1626787;87;21366;-80
2023/10/10 00:13:46;;;;;;;15.40;5.33;;;;;;;8.17;48.22;100373.17;1599347;89;21345;-81
2023/10/10 00:16:59;;;;;;;10.72;5.45;;;;;;;8.04;48.42;100374.60;1598132;89;21357;-80
2023/10/10 00:20:25;;;;;;;13.78;5.62;;;;;;;7.96;48.66;100369.12;1599281;89;21349;-80
2023/10/10 00:23:16;;;;;;;11.95;4.70;;;;;;;7.89;48.73;100360.19;1598993;89;21650;-80
2023/10/10 00:26:21;;;;;;;17.87;5.85;;;;;;;7.90;48.89;100360.56;1614875;88;21361;-80
2023/10/10 00:29:28;;;;;;;11.22;4.85;;;;;;;7.93;48.99;100359.37;1629089;88;21321;-80
2023/10/10 00:32:39;;;;;;;8.55;4.70;;;;;;;7.97;48.94;100361.28;1629239;88;21374;-80
2023/10/10 00:35:44;;;;;;;11.30;4.95;;;;;;;8.02;48.52;100357.06;1628744;88;21336;-80
2023/10/10 00:38:54;;;;;;;8.55;4.58;;;;;;;8.06;48.34;100358.97;1629159;88;21364;-80
2023/10/10 00:42:17;;;;;;;9.53;4.50;;;;;;;8.06;48.20;100354.89;1625368;87;21924;-79
2023/10/10 00:45:09;;;;;;;10.65;4.37;;;;;;;8.07;48.14;100346.55;1625156;88;21333;-80
2023/10/10 00:48:21;;;;;;;11.12;4.65;;;;;;;8.07;48.10;100355.23;1623796;88;21346;-80
2023/10/10 00:51:23;;;;;;;8.55;4.40;;;;;;;8.00;48.33;100348.21;1624963;88;21338;-80
2023/10/10 00:54:32;;;;;;;10.58;4.30;;;;;;;8.05;48.29;100345.87;1625414;87;21369;-80
2023/10/10 00:57:39;;;;;;;10.20;4.33;;;;;;;7.96;48.36;100343.24;1672838;86;21315;-80
2023/10/10 01:00:47;;;;;;;7.95;4.22;;;;;;;7.91;48.44;100342.36;1671766;86;21322;-80
2023/10/10 01:03:57;;;;;;;7.08;4.30;;;;;;;7.97;48.41;100352.61;1671977;86;21332;-80
2023/10/10 01:07:10;;;;;;;8.85;4.10;;;;;;;8.02;48.27;100354.85;1671154;86;22415;-82
2023/10/10 01:10:18;;;;;;;10.30;4.17;;;;;;;7.89;48.44;100353.38;1672479;85;21354;-80
2023/10/10 01:13:26;;;;;;;15.10;4.42;;;;;;;7.85;48.46;100354.70;1680504;85;21335;-78
2023/10/10 01:16:33;;;;;;;9.65;4.55;;;;;;;7.86;48.44;100358.31;1680610;85;21326;-80
2023/10/10 01:19:44;;;;;;;10.05;4.42;;;;;;;7.85;48.33;100358.79;1680652;85;21612;-80
2023/10/10 01:22:48;;;;;;;10.28;4.75;;;;;;;7.78;48.57;100359.60;1660042;85;21327;-82
2023/10/10 01:26:05;;;;;;;9.70;4.53;;;;;;;7.83;48.57;100360.83;1680875;85;21362;-80
2023/10/10 01:29:14;;;;;;;8.30;4.78;;;;;;;7.83;48.61;100352.66;1681659;85;21322;-80
2023/10/10 01:32:11;;;;;;;8.85;4.72;;;;;;;7.77;48.77;100349.22;1682288;85;21391;-80
2023/10/10 01:35:17;;;;;;;12.68;5.78;;;;;;;7.79;48.71;100351.27;1681488;85;21343;-81
2023/10/10 01:38:55;;;;;;;10.85;5.78;;;;;;;7.82;48.67;100352.32;1682006;85;21347;-80
2023/10/10 01:41:53;;;;;;;11.03;4.85;;;;;;;7.96;48.40;100345.96;1643079;87;21352;-80
2023/10/10 01:45:02;;;;;;;10.32;5.47;;;;;;;7.88;48.49;100344.88;1627585;88;22571;-80
2023/10/10 01:48:12;;;;;;;8.90;4.80;;;;;;;7.82;48.66;100345.52;1670842;86;21367;-80
2023/10/10 01:51:17;;;;;;;10.08;5.65;;;;;;;7.98;48.33;100347.50;1672256;86;21311;-80
2023/10/10 01:54:40;;;;;;;10.13;5.60;;;;;;;7.89;48.39;100346.58;1670843;85;21330;-79
2023/10/10 01:57:41;;;;;;;12.85;5.35;;;;;;;7.99;48.30;100345.63;1670889;86;21352;-79
2023/10/10 02:00:51;;;;;;;14.50;5.28;;;;;;;8.03;48.33;100344.30;1671994;86;21338;-80
2023/10/10 02:03:56;;;;;;;14.65;5.37;;;;;;;8.11;48.13;100345.22;1671743;86;21339;-80
2023/10/10 02:07:22;;;;;;;8.63;5.30;;;;;;;8.12;48.15;100346.06;1671597;86;22337;-80
2023/10/10 02:10:13;;;;;;;17.02;5.37;;;;;;;8.12;48.11;100341.47;1671456;85;22653;-79
2023/10/10 02:13:20;;;;;;;11.48;4.97;;;;;;;8.14;47.94;100344.06;1689172;85;21889;-80
2023/10/10 02:16:35;;;;;;;9.38;5.20;;;;;;;8.19;47.79;100347.16;1689038;85;21366;-80
2023/10/10 02:19:32;;;;;;;12.47;5.55;;;;;;;8.10;48.00;100344.88;1689003;85;21347;-80
2023/10/10 02:22:33;;;;;;;16.87;5.20;;;;;;;8.20;47.84;100339.32;1689483;85;21316;-79
2023/10/10 02:28:47;;;;;;;14.28;5.58;;;;;;;8.20;47.72;100346.98;1688351;85;21362;-81
2023/10/10 02:32:12;;;;;;;17.00;5.25;;;;;;;8.25;47.48;100345.14;1688191;85;21833;-81
2023/10/10 02:35:33;;;;;;;13.03;5.17;;;;;;;8.14;47.50;100350.87;1688984;85;21330;-80
2023/10/10 02:38:55;;;;;;;10.70;5.85;;;;;;;8.07;47.57;100343.82;1688158;85;22302;-80
2023/10/10 02:41:51;;;;;;;14.07;6.00;;;;;;;8.03;47.61;100337.48;1688491;85;21335;-79
2023/10/10 02:44:57;;;;;;;10.72;5.30;;;;;;;8.00;47.73;100344.61;1689337;85;21334;-79
2023/10/10 02:48:07;;;;;;;11.18;5.47;;;;;;;7.98;47.80;100346.65;1688485;85;21362;-80
2023/10/10 02:51:15;;;;;;;17.00;5.95;;;;;;;7.91;47.82;100337.76;1689435;85;21323;-80
2023/10/10 02:54:27;;;;;;;17.32;8.33;;;;;;;7.84;47.87;100338.02;1689131;85;21342;-79
2023/10/10 02:57:30;;;;;;;11.78;5.10;;;;;;;7.87;47.68;100335.00;1696010;83;21928;-80
2023/10/10 03:00:37;;;;;;;12.63;5.75;;;;;;;7.87;47.64;100330.06;1699024;84;21357;-82
2023/10/10 03:03:44;;;;;;;18.95;6.10;;;;;;;8.00;47.38;100341.88;1697842;84;21866;-80
2023/10/10 03:06:50;;;;;;;11.90;5.92;;;;;;;8.07;47.22;100339.73;1699126;84;21730;-79
2023/10/10 03:16:59;;;;;;;10.85;5.75;;;;;;;8.18;46.74;100342.19;1656766;84;21342;-80
2023/10/10 03:20:00;;;;;;;11.00;5.47;;;;;;;8.08;46.83;100344.67;1699461;84;21318;-80
2023/10/10 03:26:19;;;;;;;9.13;4.78;;;;;;;8.15;46.74;100353.94;1692722;84;21869;-82
2023/10/10 03:33:00;;;;;;;10.13;5.35;;;;;;;8.29;46.33;100358.80;1689584;85;21353;-81
2023/10/10 03:39:26;;;;;;;11.90;5.28;;;;;;;8.42;45.79;100361.10;1688391;85;21329;-80
2023/10/10 05:24:43;;;;;;;17.32;6.90;;;;;;;10.27;46.09;100420.19;1627498;87;21325;-82
2023/10/10 05:28:00;;;;;;;12.07;6.08;;;;;;;10.40;46.04;100425.99;1634393;86;21312;-82
2023/10/10 05:31:09;;;;;;;11.50;6.00;;;;;;;10.60;45.79;100429.72;1627173;87;21320;-81
2023/10/10 05:34:16;;;;;;;17.25;6.22;;;;;;;10.64;45.82;100428.35;1647774;85;21304;-81
2023/10/10 05:37:21;;;;;;;14.05;6.08;;;;;;;10.93;45.53;100421.77;1639358;85;21989;-82
2023/10/10 05:40:33;;;;;;;13.00;5.55;;;;;;;11.08;45.42;100422.41;1637860;86;21315;-82
2023/10/10 05:43:36;;;;;;;14.40;5.50;;;;;;;11.23;45.24;100428.84;1636134;87;21959;-82
2023/10/10 05:46:44;;;;;;;18.80;5.70;;;;;;;11.43;44.80;100429.25;1638348;86;21339;-82
2023/10/10 05:49:54;;;;;;;10.10;5.22;;;;;;;11.47;44.81;100435.56;1653205;86;21209;-81
2023/10/10 05:53:12;;;;;;;10.23;5.55;;;;;;;11.83;44.40;100435.05;1620927;85;21409;-81
2023/10/10 05:56:23;;;;;;;11.60;5.87;;;;;;;11.90;44.54;100435.17;1593661;88;21361;-81
2023/10/10 05:59:30;;;;;;;7.53;4.30;;;;;;;12.16;44.13;100438.93;1652766;85;21596;-81
2023/10/10 06:02:36;;;;;;;12.53;4.85;;;;;;;12.29;43.54;100443.28;1679684;83;21350;-80
2023/10/10 06:05:49;;;;;;;13.18;5.15;;;;;;;12.40;42.96;100440.61;1677890;85;21318;-80
2023/10/10 06:09:00;;;;;;;10.25;4.92;;;;;;;12.52;42.94;100437.77;1680455;83;21325;-81
2023/10/10 06:12:04;;;;;;;11.50;5.55;;;;;;;12.74;42.82;100444.22;1684560;83;21339;-80
2023/10/10 06:15:17;;;;;;;16.05;6.15;;;;;;;12.70;43.10;100445.63;1679324;83;21205;-83
2023/10/10 06:18:23;;;;;;;10.98;5.08;;;;;;;12.74;43.02;100444.22;1688102;83;21287;-83
2023/10/10 06:21:32;;;;;;;19.02;4.92;;;;;;;12.74;43.12;100445.08;1692812;83;21315;-81
2023/10/10 06:24:39;;;;;;;16.77;6.00;;;;;;;12.70;43.19;100453.38;1682921;83;21350;-81
2023/10/10 06:27:54;;;;;;;13.72;5.45;;;;;;;12.73;42.82;100452.13;1682781;83;21358;-81
2023/10/10 06:30:59;;;;;;;18.80;5.20;;;;;;;12.94;42.24;100452.79;1692674;83;21375;-82
2023/10/10 06:34:19;;;;;;;12.80;5.65;;;;;;;13.05;42.26;100455.91;1665076;85;21302;-81
2023/10/10 06:37:12;;;;;;;12.10;5.62;;;;;;;12.99;42.50;100447.06;1683055;83;21648;-82
2023/10/10 06:40:25;;;;;;;11.30;5.87;;;;;;;13.23;42.29;100445.95;1686395;83;21321;-82
2023/10/10 06:43:33;;;;;;;13.20;5.35;;;;;;;13.35;42.45;100444.08;1689062;83;21315;-80
2023/10/10 06:46:37;;;;;;;9.90;5.40;;;;;;;13.64;42.33;100445.92;1684412;83;21315;-80
2023/10/10 06:49:55;;;;;;;9.90;5.90;;;;;;;13.90;42.38;100451.74;1694918;83;21323;-80
2023/10/10 06:53:03;;;;;;;13.10;6.20;;;;;;;14.03;42.12;100451.89;1681603;83;21302;-80
2023/10/10 06:56:17;;;;;;;13.62;6.08;;;;;;;14.23;41.78;100448.48;1688666;83;21295;-80
2023/10/10 06:59:26;;;;;;;9.88;5.00;;;;;;;14.40;41.71;100451.30;1683747;83;21855;-80
2023/10/10 07:02:39;;;;;;;15.40;5.80;;;;;;;14.72;41.57;100454.02;1689769;83;22049;-80
2023/10/10 07:05:42;;;;;;;12.03;5.22;;;;;;;14.97;41.09;100450.83;1689344;83;21378;-80
2023/10/10 07:09:14;;;;;;;7.25;4.62;;;;;;;15.23;40.75;100454.27;1735043;80;50028;-80
2023/10/10 07:12:11;;;;;;;14.30;4.72;;;;;;;15.36;40.30;100450.20;1736795;81;21310;-79
2023/10/10 07:15:17;;;;;;;9.95;4.42;;;;;;;15.53;39.81;100447.44;1736210;81;21315;-81
2023/10/10 07:18:23;;;;;;;6.67;3.58;;;;;;;15.68;39.37;100444.55;1732593;81;21342;-81
2023/10/10 07:21:36;;;;;;;8.05;3.77;;;;;;;15.48;38.80;100439.44;1724769;81;21338;-80
2023/10/10 07:24:41;;;;;;;9.03;4.30;;;;;;;15.53;38.71;100446.06;1730241;81;21295;-80
2023/10/10 07:27:47;;;;;;;6.62;3.77;;;;;;;15.79;38.05;100440.34;1734375;81;21422;-81
2023/10/10 07:30:59;;;;;;;6.85;4.10;;;;;;;15.88;38.23;100441.86;1735111;81;21311;-81
2023/10/10 07:34:15;;;;;;;6.25;3.12;;;;;;;16.07;38.28;100434.16;1731121;81;21299;-81
2023/10/10 07:37:16;;;;;;;6.25;3.30;;;;;;;15.97;38.25;100435.62;1733467;81;21334;-81
2023/10/10 07:40:30;;;;;;;6.50;3.37;;;;;;;16.15;37.55;100426.75;1730755;81;21292;-82
2023/10/10 07:43:34;;;;;;;6.65;3.50;;;;;;;16.15;37.68;100428.98;1729710;81;21302;-82
2023/10/10 07:47:07;;;;;;;8.78;2.87;;;;;;;16.24;37.31;100435.16;1734170;81;21901;-81
2023/10/10 07:49:59;;;;;;;7.55;3.08;;;;;;;16.20;36.80;100438.85;1728594;81;21236;-82
2023/10/10 07:53:07;;;;;;;6.50;2.70;;;;;;;16.16;36.47;100438.10;1722574;81;21605;-81
2023/10/10 07:56:13;;;;;;;4.00;2.67;;;;;;;16.18;36.60;100447.86;1735994;81;21221;-81
2023/10/10 07:59:20;;;;;;;10.32;3.17;;;;;;;16.08;36.49;100445.50;1724961;81;21337;-81
2023/10/10 08:02:37;;;;;;;6.92;2.70;;;;;;;16.10;36.24;100443.94;1732927;81;21938;-81
2023/10/10 08:05:36;;;;;;;5.83;2.52;;;;;;;16.21;35.78;100446.06;1736130;81;21338;-81
2023/10/10 08:08:42;;;;;;;7.37;2.92;;;;;;;16.27;35.79;100444.37;1732689;81;41993;-81
2023/10/10 08:11:54;;;;;;;4.50;2.65;;;;;;;16.39;35.44;100445.45;1732710;81;21187;-81
2023/10/10 08:15:17;;;;;;;6.40;3.17;;;;;;;16.33;36.27;100445.77;1741240;81;21711;-81
2023/10/10 08:18:08;;;;;;;6.55;3.10;;;;;;;16.55;36.21;100449.70;1736527;81;21324;-81
2023/10/10 08:21:32;;;;;;;7.10;3.42;;;;;;;16.53;36.40;100451.30;1734168;81;21925;-81
2023/10/10 08:24:43;;;;;;;6.40;2.92;;;;;;;16.48;35.85;100444.19;1732831;81;21195;-81
2023/10/10 08:27:48;;;;;;;4.50;2.50;;;;;;;16.47;35.84;100442.50;1740795;81;22526;-81
2023/10/10 08:30:56;;;;;;;6.03;2.62;;;;;;;16.35;35.17;100446.94;1731960;81;21315;-81
2023/10/10 08:34:02;;;;;;;6.40;3.20;;;;;;;16.27;34.95;100447.98;1736603;81;21336;-80
2023/10/10 08:37:09;;;;;;;7.70;3.05;;;;;;;16.25;34.57;100447.88;1740428;81;21329;-81
2023/10/10 08:40:25;;;;;;;6.28;2.90;;;;;;;16.15;34.58;100448.83;1748297;81;21324;-81
2023/10/10 08:43:26;;;;;;;5.87;2.97;;;;;;;15.97;34.65;100448.88;1748451;81;21887;-81
2023/10/10 08:46:58;;;;;;;6.47;2.70;;;;;;;15.81;34.89;100448.74;1739234;81;21865;-81
2023/10/10 08:49:51;;;;;;;7.25;3.17;;;;;;;15.78;35.22;100459.33;1739477;81;21310;-81
2023/10/10 08:52:59;;;;;;;8.63;3.45;;;;;;;15.74;34.92;100445.09;1744967;81;21306;-81
2023/10/10 08:56:06;;;;;;;9.10;3.60;;;;;;;15.69;35.00;100444.87;1732466;81;21208;-80
2023/10/10 08:59:17;;;;;;;7.05;3.05;;;;;;;15.65;34.91;100438.59;1689630;82;21350;-81
2023/10/10 09:02:33;;;;;;;8.05;3.05;;;;;;;15.73;34.96;100427.39;1675754;85;21313;-81
2023/10/10 09:05:33;;;;;;;6.83;3.45;;;;;;;15.73;35.02;100428.77;1676601;84;21378;-80
2023/10/10 09:08:43;;;;;;;13.68;3.33;;;;;;;15.83;34.98;100431.44;1678478;85;21188;-80
2023/10/10 09:11:57;;;;;;;8.48;3.35;;;;;;;15.89;34.96;100424.77;1856830;76;22196;-82
2023/10/10 09:15:05;;;;;;;7.30;3.50;;;;;;;15.83;35.18;100425.08;1750229;80;21296;-82
2023/10/10 09:18:26;;;;;;;6.62;3.17;;;;;;;15.84;35.38;100427.63;1747394;80;21318;-82
2023/10/10 09:21:31;;;;;;;10.08;4.45;;;;;;;16.08;34.82;100417.06;1754946;81;21340;-82
2023/10/10 09:24:41;;;;;;;5.25;2.55;;;;;;;16.14;34.20;100414.88;1757226;80;21263;-82
2023/10/10 09:27:56;;;;;;;5.50;1.85;;;;;;;16.21;32.99;100410.73;1735357;80;21378;-79
2023/10/10 09:31:19;;;;;;;4.30;2.17;;;;;;;15.90;32.29;100402.48;1746234;82;21364;-80
2023/10/10 09:34:22;;;;;;;7.45;2.87;;;;;;;15.90;33.43;100403.87;1744928;82;21295;-81
2023/10/10 09:37:30;;;;;;;5.50;2.90;;;;;;;16.21;33.49;100402.45;1753451;80;21292;-81
2023/10/10 09:40:33;;;;;;;5.00;2.37;;;;;;;16.16;33.65;100395.33;1738226;80;21351;-81
2023/10/10 09:43:48;;;;;;;5.00;2.17;;;;;;;16.30;32.67;100399.80;1752470;80;21908;-81
2023/10/10 09:47:40;;;;;;;3.15;1.87;;;;;;;16.18;32.04;100400.94;1760627;80;21318;-81
2023/10/10 09:53:19;;;;;;;7.17;1.85;;;;;;;16.24;31.07;100388.23;1725659;80;21298;-81
2023/10/10 09:56:13;;;;;;;5.62;1.98;;;;;;;16.38;31.33;100383.03;1754119;80;21334;-81
2023/10/10 09:59:28;;;;;;;9.05;2.35;;;;;;;16.45;30.40;100385.25;1784844;79;22385;-81
2023/10/10 10:02:43;;;;;;;7.00;3.25;;;;;;;16.47;30.56;100379.53;1757340;79;21926;-82
2023/10/10 10:05:58;;;;;;;9.83;3.27;;;;;;;16.43;28.97;100383.25;1750936;80;22453;-82
2023/10/10 10:09:38;;;;;;;8.85;4.40;;;;;;;16.37;29.26;100381.31;1755220;80;21353;-82
2023/10/10 10:12:51;;;;;;;7.72;3.92;;;;;;;16.54;29.54;100377.06;1730837;81;21307;-82
2023/10/10 10:16:37;;;;;;;8.15;4.03;;;;;;;16.59;29.02;100375.89;1779411;79;21938;-82
2023/10/10 10:19:49;;;;;;;8.20;3.67;;;;;;;16.65;29.70;100377.48;1774660;79;21271;-82
2023/10/10 10:23:00;;;;;;;6.05;3.02;;;;;;;16.71;29.75;100357.31;1760198;79;22382;-82
2023/10/10 10:26:21;;;;;;;8.40;4.22;;;;;;;16.61;29.19;100364.12;1776453;79;21283;-82
2023/10/10 10:29:42;;;;;;;6.33;3.12;;;;;;;16.49;29.84;100367.73;1771801;79;21307;-82
2023/10/10 10:32:53;;;;;;;7.67;3.90;;;;;;;16.54;29.57;100367.94;1778675;79;21300;-82
2023/10/10 10:36:14;;;;;;;9.60;4.03;;;;;;;16.61;29.20;100364.66;1783865;79;21299;-82
2023/10/10 10:39:34;;;;;;;5.08;3.17;;;;;;;16.66;29.21;100364.86;1777728;79;21351;-82
2023/10/10 10:42:37;;;;;;;8.95;2.92;;;;;;;16.61;29.24;100370.17;1778382;79;21314;-81
2023/10/10 10:45:51;;;;;;;9.65;3.15;;;;;;;16.68;29.39;100361.34;1782721;79;21177;-82
2023/10/10 10:48:55;;;;;;;10.20;4.10;;;;;;;16.75;28.81;100359.45;1742552;79;21307;-81
2023/10/10 10:52:18;;;;;;;8.70;4.33;;;;;;;16.73;29.66;100351.05;1758912;80;21311;-81
2023/10/10 10:55:23;;;;;;;5.62;3.02;;;;;;;16.71;29.61;100353.16;1779745;79;21322;-81
2023/10/10 10:58:30;;;;;;;5.80;3.37;;;;;;;16.79;29.69;100351.56;1780517;79;21942;-81
2023/10/10 11:01:36;;;;;;;4.00;2.10;;;;;;;16.61;29.28;100352.23;1771285;79;21332;-81
2023/10/10 11:04:43;;;;;;;3.60;2.15;;;;;;;16.52;29.44;100346.61;1782542;79;21303;-80
2023/10/10 11:08:06;;;;;;;8.33;2.15;;;;;;;16.47;29.55;100343.11;1776030;79;21346;-80
2023/10/10 11:11:22;;;;;;;3.58;1.80;;;;;;;16.54;29.21;100346.70;1774773;79;22030;-80
2023/10/10 11:14:18;;;;;;;3.40;2.12;;;;;;;16.55;29.34;100342.86;1779848;79;21325;-81
2023/10/10 11:17:22;;;;;;;;;;;;;;;16.52;29.52;100331.42;1789484;79;21307;-81
2023/10/10 11:20:29;;;;;;;4.85;2.20;;;;;;;16.42;28.72;100333.24;1773784;79;20307;-81
2023/10/10 11:23:41;;;;;;;17.35;5.70;;;;;;;16.41;28.96;100332.05;1757845;79;21297;-81
2023/10/10 11:26:44;;;;;;;5.65;2.67;;;;;;;16.36;28.88;100342.36;1776663;79;21319;-81
2023/10/10 11:30:00;;;;;;;4.22;3.00;;;;;;;16.38;28.82;100342.16;1775012;79;21857;-81
2023/10/10 11:33:24;;;;;;;3.83;2.33;;;;;;;16.59;28.66;100342.75;1792471;79;22242;-81
2023/10/10 11:36:39;;;;;;;7.72;2.80;;;;;;;16.60;28.72;100349.97;1772824;79;21312;-81
2023/10/10 11:39:49;;;;;;;4.80;2.45;;;;;;;16.74;28.60;100345.84;1772257;79;21300;-81
2023/10/10 11:42:56;;;;;;;3.67;2.37;;;;;;;16.79;28.05;100344.66;1779863;79;21321;-82
2023/10/10 11:46:02;;;;;;;7.08;3.10;;;;;;;16.89;27.41;100342.32;1772922;79;21310;-82
2023/10/10 11:49:09;;;;;;;4.35;2.62;;;;;;;17.00;27.25;100344.40;1779198;79;21614;-82
2023/10/10 11:52:27;;;;;;;7.78;3.60;;;;;;;17.13;26.91;100339.37;1736020;81;21329;-81
2023/10/10 11:55:34;;;;;;;4.97;3.25;;;;;;;17.22;27.62;100342.70;1790332;79;22422;-82
2023/10/10 11:58:43;;;;;;;5.60;3.40;;;;;;;17.13;27.58;100341.28;1784493;79;21302;-81
2023/10/10 12:01:51;;;;;;;6.50;2.05;;;;;;;17.05;27.68;100345.97;1777705;79;21305;-80
2023/10/10 12:04:57;;;;;;;3.35;1.82;;;;;;;17.00;27.07;100350.46;1729885;82;21357;-81
2023/10/10 12:08:08;;;;;;;5.95;1.75;;;;;;;16.95;27.14;100340.59;1732636;81;21323;-81
2023/10/10 12:11:20;;;;;;;;;;;;;;;16.94;27.15;100346.66;1769714;81;21315;-81
2023/10/10 12:14:24;;;;;;;8.83;1.55;;;;;;;16.79;27.02;100339.13;1767592;81;20320;-81
2023/10/10 12:17:31;;;;;;;2.55;1.30;;;;;;;16.96;26.62;100338.98;1770806;79;21292;-81
2023/10/10 12:20:42;;;;;;;2.77;1.07;;;;;;;16.73;27.53;100342.77;1783776;79;21287;-81
2023/10/10 12:23:52;;;;;;;2.87;1.30;;;;;;;16.65;27.50;100333.30;1736565;81;21597;-80
2023/10/10 12:26:56;;;;;;;3.58;1.65;;;;;;;16.73;26.77;100336.71;1778320;79;21291;-81
2023/10/10 12:30:04;;;;;;;5.78;1.42;;;;;;;16.75;27.07;100337.86;1767780;79;21308;-81
2023/10/10 12:33:19;;;;;;;2.65;1.82;;;;;;;16.71;27.37;100336.06;1769767;79;21296;-82
2023/10/10 12:36:28;;;;;;;3.90;1.60;;;;;;;16.75;26.84;100329.58;1748404;81;21320;-82
2023/10/10 12:39:31;;;;;;;3.50;1.57;;;;;;;16.84;27.23;100326.90;1746912;81;21273;-81
2023/10/10 12:42:38;;;;;;;2.58;1.25;;;;;;;16.95;26.81;100327.63;1768820;81;21335;-81
2023/10/10 12:45:51;;;;;;;4.45;1.20;;;;;;;16.99;26.75;100323.38;1731204;82;21313;-81
2023/10/10 12:48:53;;;;;;;3.27;1.57;;;;;;;17.18;26.62;100326.28;1768342;81;21358;-81
2023/10/10 12:52:01;;;;;;;2.98;1.22;;;;;;;17.34;26.11;100324.38;1748373;81;21319;-81
2023/10/10 12:55:09;;;;;;;1.92;0.90;;;;;;;17.39;26.12;100325.95;1783082;79;21335;-80
2023/10/10 12:58:20;;;;;;;3.05;2.00;;;;;;;17.46;26.60;100330.92;1801362;79;21317;-80
2023/10/10 13:01:24;;;;;;;3.80;1.40;;;;;;;17.46;26.42;100326.77;1768464;79;21334;-80
2023/10/10 13:04:36;;;;;;;4.33;1.85;;;;;;;17.53;26.30;100328.11;1767938;81;21295;-80
2023/10/10 13:07:43;;;;;;;3.60;1.75;;;;;;;17.40;26.67;100324.87;1768713;81;21303;-81
2023/10/10 13:10:55;;;;;;;3.83;1.35;;;;;;;17.38;26.52;100325.64;1788817;79;21330;-81
2023/10/10 13:14:14;;;;;;;4.15;1.50;;;;;;;17.36;25.81;100330.02;1769217;80;21359;-81
2023/10/10 13:17:30;;;;;;;2.55;1.35;;;;;;;17.44;26.15;100336.34;1742765;82;21680;-81
2023/10/10 13:20:38;;;;;;;6.05;1.65;;;;;;;17.47;25.79;100327.08;1743689;82;21326;-81
2023/10/10 13:23:45;;;;;;;3.02;1.20;;;;;;;17.35;26.49;100328.83;1761850;80;21346;-81
2023/10/10 13:26:53;;;;;;;3.90;1.77;;;;;;;17.16;26.25;100325.63;1775117;80;21313;-81
2023/10/10 13:30:00;;;;;;;3.20;1.57;;;;;;;17.08;25.68;100328.97;1774400;81;22248;-80
2023/10/10 13:33:06;;;;;;;3.40;1.50;;;;;;;17.02;25.95;100331.20;1775692;81;21310;-81
2023/10/10 13:36:17;;;;;;;4.20;1.62;;;;;;;17.09;26.41;100333.42;1774851;81;21333;-81
2023/10/10 13:39:40;;;;;;;3.22;1.85;;;;;;;17.05;26.27;100329.39;1774796;81;21948;-81
2023/10/10 13:42:32;;;;;;;2.72;1.50;;;;;;;17.22;26.03;100335.30;1774607;81;21309;-83
2023/10/10 13:45:41;;;;;;;3.12;1.50;;;;;;;17.11;26.50;100336.80;1774671;81;21342;-81
2023/10/10 13:48:48;;;;;;;;;;;;;;;17.11;26.62;100334.58;1776875;81;21609;-80
2023/10/10 13:51:54;;;;;;;1.98;1.20;;;;;;;17.09;26.64;100337.56;1775306;81;20778;-81
2023/10/10 13:54:54;;;;;;;3.92;1.35;;;;;;;16.81;27.22;100332.88;1775400;81;22646;-81
2023/10/10 13:58:02;;;;;;;3.37;1.20;;;;;;;16.83;27.21;100337.64;1776505;81;21306;-81
2023/10/10 14:01:18;;;;;;;3.00;1.45;;;;;;;16.73;27.43;100338.09;1752394;81;21861;-81
2023/10/10 14:04:45;;;;;;;3.65;1.37;;;;;;;16.73;27.60;100339.47;1776250;81;21322;-81
2023/10/10 14:07:33;;;;;;;6.50;1.77;;;;;;;16.69;27.73;100345.61;1776470;81;21338;-80
2023/10/10 14:10:50;;;;;;;3.85;1.75;;;;;;;16.68;27.61;100346.68;1776537;81;21322;-81
2023/10/10 14:14:00;;;;;;;12.00;3.65;;;;;;;16.67;27.49;100352.73;1776491;81;21345;-81
2023/10/10 14:17:06;;;;;;;9.98;3.90;;;;;;;16.67;27.69;100355.50;1770287;79;21351;-81
2023/10/10 14:20:21;;;;;;;6.08;3.17;;;;;;;16.56;27.99;100359.77;1721669;83;21343;-81
2023/10/10 14:23:30;;;;;;;3.98;1.90;;;;;;;16.67;28.20;100365.16;1722218;83;21303;-81
2023/10/10 14:26:36;;;;;;;6.80;2.00;;;;;;;16.66;28.44;100371.77;1722129;83;21307;-82
2023/10/10 14:29:43;;;;;;;2.67;1.50;;;;;;;16.57;28.63;100374.42;1721545;83;21340;-82
2023/10/10 14:32:54;;;;;;;4.28;1.82;;;;;;;16.54;28.66;100374.30;1720225;83;21339;-82
2023/10/10 14:35:52;;;;;;;6.75;1.87;;;;;;;16.43;28.83;100376.34;1720281;83;21367;-82
2023/10/10 14:38:50;;;;;;;5.28;2.20;;;;;;;16.47;29.06;100383.67;1721523;83;21869;-82
2023/10/10 14:41:36;;;;;;;4.47;2.05;;;;;;;16.52;29.08;100385.27;1721639;83;21874;-81
2023/10/10 14:44:28;;;;;;;7.20;2.30;;;;;;;16.49;29.30;100383.77;1721457;83;21307;-82
2023/10/10 14:47:36;;;;;;;3.42;1.85;;;;;;;16.50;29.41;100381.84;1720140;83;21311;-82
2023/10/10 14:50:52;;;;;;;4.70;2.00;;;;;;;16.50;29.62;100394.27;1721571;83;21323;-82
2023/10/10 14:53:55;;;;;;;3.80;1.92;;;;;;;16.42;29.82;100398.12;1721716;83;21862;-82
2023/10/10 14:57:02;;;;;;;4.05;1.87;;;;;;;16.40;29.98;100402.14;1721503;83;21658;-82
2023/10/10 15:00:17;;;;;;;6.12;2.05;;;;;;;16.32;30.43;100407.33;1720299;83;21320;-82
2023/10/10 15:03:17;;;;;;;6.03;2.25;;;;;;;16.31;30.71;100412.53;1720333;83;21356;-82
2023/10/10 15:06:22;;;;;;;8.70;3.20;;;;;;;16.25;30.66;100421.13;1720582;83;21320;-82
2023/10/10 15:09:28;;;;;;;6.45;2.85;;;;;;;16.04;30.93;100409.77;1721670;83;21291;-82
2023/10/10 15:12:34;;;;;;;5.45;3.52;;;;;;;15.84;31.22;100419.87;1721443;83;21648;-80
2023/10/10 15:15:45;;;;;;;9.98;6.25;;;;;;;15.72;31.47;100425.70;1720816;83;21347;-80
2023/10/10 15:18:51;;;;;;;16.37;5.50;;;;;;;15.67;31.54;100430.98;1774901;81;21849;-80
2023/10/10 15:21:56;;;;;;;5.37;2.85;;;;;;;15.64;31.67;100441.03;1813527;79;21866;-81
2023/10/10 15:25:04;;;;;;;5.83;2.98;;;;;;;15.58;31.79;100443.53;1789828;79;21322;-80
2023/10/10 15:28:09;;;;;;;10.43;2.90;;;;;;;15.53;32.02;100452.95;1813368;79;21298;-80
2023/10/10 15:31:16;;;;;;;6.90;2.95;;;;;;;15.44;32.23;100459.69;1813234;79;21343;-80
2023/10/10 15:34:23;;;;;;;6.42;2.40;;;;;;;15.33;32.40;100456.11;1813437;79;21857;-80
2023/10/10 15:37:31;;;;;;;15.65;2.85;;;;;;;15.30;32.56;100468.94;1813659;79;21315;-81
2023/10/10 15:40:43;;;;;;;4.95;2.00;;;;;;;15.16;32.76;100476.80;1813510;79;21849;-81
2023/10/10 15:43:48;;;;;;;10.18;2.17;;;;;;;15.17;32.77;100488.14;1812119;79;21335;-81
2023/10/10 15:46:58;;;;;;;5.00;2.42;;;;;;;14.91;33.01;100484.66;1812338;79;21401;-81
2023/10/10 15:50:04;;;;;;;7.65;2.50;;;;;;;14.78;33.16;100485.44;1811964;79;21308;-81
2023/10/10 15:53:12;;;;;;;4.58;2.20;;;;;;;14.63;33.41;100494.28;1813412;79;21319;-81
2023/10/10 15:56:26;;;;;;;5.62;2.98;;;;;;;14.55;33.56;100498.05;1812715;79;21315;-81
2023/10/10 15:59:27;;;;;;;6.00;3.12;;;;;;;14.45;33.72;100503.00;1774478;81;21307;-81
2023/10/10 16:02:34;;;;;;;4.55;2.85;;;;;;;14.36;33.88;100500.90;1811877;78;21330;-81
2023/10/10 16:05:47;;;;;;;5.05;2.40;;;;;;;14.27;33.86;100510.33;1813595;79;21323;-80
2023/10/10 16:08:58;;;;;;;12.65;3.00;;;;;;;14.14;33.95;100510.18;1813842;78;21323;-82
2023/10/10 16:12:07;;;;;;;6.17;2.17;;;;;;;14.12;33.96;100513.66;1808123;79;21844;-80
2023/10/10 16:15:18;;;;;;;6.83;2.52;;;;;;;13.97;34.10;100520.55;1817341;78;21288;-80
2023/10/10 16:18:22;;;;;;;6.90;2.37;;;;;;;13.94;34.10;100524.55;1824555;78;21557;-80
2023/10/10 16:21:28;;;;;;;6.45;3.02;;;;;;;13.64;34.48;100531.13;1822284;78;21305;-80
2023/10/10 16:24:39;;;;;;;6.30;2.90;;;;;;;13.59;34.54;100535.82;1821993;78;21313;-80
2023/10/10 16:27:42;;;;;;;5.08;2.25;;;;;;;13.30;34.88;100535.31;1822527;78;21296;-81
2023/10/10 16:30:56;;;;;;;5.58;2.47;;;;;;;13.26;34.94;100540.31;1802744;78;21338;-82
2023/10/10 16:34:05;;;;;;;9.30;2.87;;;;;;;13.22;34.97;100545.00;1795429;80;21324;-80
2023/10/10 16:37:21;;;;;;;5.03;2.60;;;;;;;13.10;35.11;100540.47;1799798;78;21173;-81
2023/10/10 16:40:30;;;;;;;3.72;2.12;;;;;;;13.04;35.13;100547.56;1796529;80;21299;-81
2023/10/10 16:43:40;;;;;;;4.42;2.35;;;;;;;13.02;35.01;100554.27;1794790;80;21292;-80